createdAt,value
2022-08-08T00:00:59.591Z,65.68
2022-08-08T00:03:31.714Z,65.31
2022-08-08T00:06:33.892Z,65.49
2022-08-08T00:09:09.033Z,65.40
2022-08-08T00:12:09.586Z,65.60
2022-08-08T00:14:59.153Z,65.48
2022-08-08T00:17:58.743Z,65.30
2022-08-08T00:20:28.863Z,65.03
2022-08-08T00:23:02.373Z,65.65
2022-08-08T00:25:44.977Z,65.76
2022-08-08T00:28:35.529Z,64.80
2022-08-08T00:32:20.712Z,64.65
2022-08-08T00:34:50.431Z,64.58
2022-08-08T00:37:46.926Z,64.81
2022-08-08T00:41:11.467Z,64.74
2022-08-08T00:43:58.909Z,64.92
2022-08-08T00:46:58.198Z,63.74
2022-08-08T00:49:58.578Z,64.69
2022-08-08T00:53:20.834Z,65.33
2022-08-08T00:56:02.443Z,66.05
2022-08-08T00:59:18.705Z,65.49
2022-08-08T01:03:55.662Z,66.31
2022-08-08T01:05:42.197Z,65.94
2022-08-08T01:08:52.747Z,65.45
2022-08-08T01:11:34.303Z,65.55
2022-08-08T01:14:54.670Z,65.36
2022-08-08T01:17:19.981Z,65.79
2022-08-08T01:20:28.258Z,65.71
2022-08-08T01:24:06.793Z,65.80
2022-08-08T01:26:28.420Z,64.86
2022-08-08T01:29:05.621Z,65.97
2022-08-08T01:32:15.042Z,65.47
2022-08-08T01:34:42.129Z,65.08
2022-08-08T01:37:57.848Z,66.37
2022-08-08T01:40:40.160Z,66.59
2022-08-08T01:43:34.679Z,66.76
2022-08-08T01:46:32.253Z,66.30
2022-08-08T01:49:37.784Z,66.32
2022-08-08T01:52:33.631Z,66.39
2022-08-08T01:56:28.771Z,66.25
2022-08-08T01:58:47.215Z,66.42
2022-08-08T02:02:14.014Z,66.15
2022-08-08T02:05:04.711Z,64.58
2022-08-08T02:08:01.961Z,66.39
2022-08-08T02:11:05.724Z,66.70
2022-08-08T02:13:54.296Z,66.57
2022-08-08T02:16:35.113Z,66.93
2022-08-08T02:19:41.959Z,66.81
2022-08-08T02:22:28.446Z,66.68
2022-08-08T02:25:11.725Z,66.33
2022-08-08T02:27:57.817Z,66.45
2022-08-08T02:30:50.120Z,66.79
2022-08-08T02:34:07.886Z,66.78
2022-08-08T02:37:09.991Z,65.76
2022-08-08T02:40:06.692Z,66.17
2022-08-08T02:44:38.862Z,67.05
2022-08-08T02:46:23.094Z,66.59
2022-08-08T02:49:08.954Z,65.21
2022-08-08T02:52:34.622Z,64.90
2022-08-08T02:55:36.482Z,66.03
2022-08-08T02:58:30.356Z,65.71
2022-08-08T03:01:39.688Z,66.16
2022-08-08T03:05:08.717Z,66.36
2022-08-08T03:08:17.027Z,66.55
2022-08-08T03:11:13.819Z,66.62
2022-08-08T03:15:59.703Z,67.09
2022-08-08T03:17:25.614Z,67.14
2022-08-08T03:20:08.055Z,66.90
2022-08-08T03:22:45.275Z,66.86
2022-08-08T03:25:18.968Z,66.84
2022-08-08T03:28:05.627Z,66.63
2022-08-08T03:30:35.519Z,66.53
2022-08-08T03:33:58.039Z,66.37
2022-08-08T03:36:10.309Z,66.27
2022-08-08T03:38:53.507Z,65.99
2022-08-08T03:42:27.863Z,65.80
2022-08-08T03:44:25.760Z,65.95
2022-08-08T03:46:54.572Z,65.95
2022-08-08T03:49:57.388Z,66.16
2022-08-08T03:52:15.307Z,66.15
2022-08-08T03:55:02.646Z,66.10
2022-08-08T03:58:31.499Z,66.04
2022-08-08T04:00:30.714Z,65.81
2022-08-08T04:03:04.474Z,65.83
2022-08-08T04:05:47.217Z,66.10
2022-08-08T04:08:33.645Z,65.41
2022-08-08T04:11:11.182Z,65.25
2022-08-08T04:14:03.943Z,65.13
2022-08-08T04:16:38.348Z,65.00
2022-08-08T04:19:23.682Z,65.12
2022-08-08T04:21:57.026Z,64.73
2022-08-08T04:24:30.717Z,64.67
2022-08-08T04:27:01.033Z,64.59
2022-08-08T04:29:37.124Z,64.57
2022-08-08T04:32:10.654Z,64.20
2022-08-08T04:34:55.939Z,64.06
2022-08-08T04:37:32.387Z,64.20
2022-08-08T04:40:07.779Z,64.15
2022-08-08T04:42:46.853Z,63.80
2022-08-08T04:45:25.982Z,63.83
2022-08-08T04:47:58.583Z,63.94
2022-08-08T04:50:34.290Z,63.80
2022-08-08T04:53:14.304Z,63.45
2022-08-08T04:55:55.971Z,63.62
2022-08-08T04:58:25.430Z,63.93
2022-08-08T05:00:54.419Z,63.70
2022-08-08T05:04:09.876Z,63.25
2022-08-08T05:06:13.383Z,62.43
2022-08-08T05:08:51.619Z,62.90
2022-08-08T05:11:23.881Z,62.18
2022-08-08T05:13:55.260Z,59.94
2022-08-08T05:16:51.255Z,59.13
2022-08-08T05:20:10.794Z,60.01
2022-08-08T05:22:09.821Z,61.70
2022-08-08T05:24:41.976Z,62.84
2022-08-08T05:27:17.221Z,62.44
2022-08-08T05:29:45.855Z,62.20
2022-08-08T05:32:24.511Z,61.07
2022-08-08T05:34:59.246Z,59.34
2022-08-08T05:37:52.319Z,58.94
2022-08-08T05:40:28.019Z,60.69
2022-08-08T05:43:17.290Z,61.21
2022-08-08T05:46:03.682Z,61.16
2022-08-08T05:48:34.703Z,62.80
2022-08-08T05:51:15.329Z,61.75
2022-08-08T05:54:24.291Z,59.86
2022-08-08T05:56:42.724Z,59.12
2022-08-08T06:00:00.957Z,60.03
2022-08-08T06:02:48.077Z,60.03
2022-08-08T06:05:33.242Z,61.77
2022-08-08T06:08:09.860Z,60.76
2022-08-08T06:10:49.572Z,62.33
2022-08-08T06:13:22.736Z,61.58
2022-08-08T06:15:55.000Z,59.81
2022-08-08T06:18:43.748Z,59.77
2022-08-08T06:21:28.130Z,60.10
2022-08-08T06:24:03.442Z,59.68
2022-08-08T06:26:50.284Z,59.68
2022-08-08T06:29:59.406Z,59.79
2022-08-08T06:32:33.538Z,59.97
2022-08-08T06:36:04.598Z,60.69
2022-08-08T06:38:09.287Z,60.50
2022-08-08T06:40:53.818Z,59.46
2022-08-08T06:43:33.675Z,59.38
2022-08-08T06:46:08.986Z,59.55
2022-08-08T06:48:42.309Z,60.20
2022-08-08T06:51:11.962Z,58.74
2022-08-08T06:53:50.806Z,58.87
2022-08-08T06:56:26.319Z,58.02
2022-08-08T06:58:54.609Z,56.31
2022-08-08T07:02:27.379Z,56.27
2022-08-08T07:04:41.470Z,56.44
2022-08-08T07:07:18.700Z,55.37
2022-08-08T07:10:02.764Z,54.48
2022-08-08T07:12:43.026Z,54.50
2022-08-08T07:15:23.259Z,53.61
2022-08-08T07:18:35.593Z,53.55
2022-08-08T07:21:01.869Z,53.32
2022-08-08T07:24:01.044Z,52.74
2022-08-08T07:26:35.252Z,52.46
2022-08-08T07:29:08.257Z,52.17
2022-08-08T07:31:40.722Z,51.55
2022-08-08T07:34:11.350Z,51.32
2022-08-08T07:36:55.615Z,51.52
2022-08-08T07:39:29.589Z,51.52
2022-08-08T07:42:05.504Z,51.49
2022-08-08T07:44:40.315Z,51.29
2022-08-08T07:47:09.899Z,50.85
2022-08-08T07:49:40.095Z,51.06
2022-08-08T07:52:13.355Z,49.27
2022-08-08T07:54:53.731Z,49.29
2022-08-08T07:57:36.086Z,49.87
2022-08-08T08:00:16.293Z,48.94
2022-08-08T08:03:20.471Z,48.30
2022-08-08T08:05:53.217Z,48.08
2022-08-08T08:08:36.559Z,46.95
2022-08-08T08:11:04.674Z,46.48
2022-08-08T08:13:42.918Z,46.61
2022-08-08T08:16:32.221Z,46.14
2022-08-08T08:19:10.097Z,46.09
2022-08-08T08:21:58.402Z,45.85
2022-08-08T08:24:39.840Z,47.10
2022-08-08T08:27:12.321Z,45.99
2022-08-08T08:29:43.103Z,45.51
2022-08-08T08:32:12.344Z,45.75
2022-08-08T08:34:53.327Z,45.70
2022-08-08T08:37:24.010Z,46.24
2022-08-08T08:40:01.300Z,45.95
2022-08-08T08:42:36.549Z,45.33
2022-08-08T08:45:21.220Z,44.69
2022-08-08T08:47:54.127Z,44.44
2022-08-08T08:50:32.903Z,42.40
2022-08-08T08:53:27.415Z,43.77
2022-08-08T08:56:01.952Z,44.64
2022-08-08T08:58:41.534Z,44.49
2022-08-08T09:01:13.474Z,43.95
2022-08-08T09:03:50.961Z,43.12
2022-08-08T09:06:33.414Z,42.75
2022-08-08T09:09:18.770Z,41.75
2022-08-08T09:12:02.122Z,40.21
2022-08-08T09:14:35.169Z,38.44
2022-08-08T09:17:11.625Z,37.19
2022-08-08T09:21:59.250Z,31.30
2022-08-08T09:22:31.318Z,27.75
2022-08-08T09:24:59.699Z,31.03
2022-08-08T09:27:55.811Z,29.49
2022-08-08T09:30:17.400Z,29.12
2022-08-08T09:33:54.323Z,27.37
2022-08-08T09:35:49.130Z,24.45
2022-08-08T09:38:52.902Z,21.58
2022-08-08T09:42:14.661Z,16.68
2022-08-08T09:44:52.785Z,21.53
2022-08-08T09:47:25.827Z,18.12
2022-08-08T09:50:03.345Z,19.23
2022-08-08T09:52:55.792Z,18.07
2022-08-08T09:56:03.748Z,16.48
2022-08-08T09:58:27.664Z,14.79
2022-08-08T10:01:14.241Z,14.88
2022-08-08T10:04:02.385Z,13.31
2022-08-08T10:06:35.529Z,14.25
2022-08-08T10:09:03.990Z,16.44
2022-08-08T10:12:27.930Z,16.63
2022-08-08T10:14:28.469Z,17.84
2022-08-08T10:17:56.443Z,18.67
2022-08-08T10:20:00.065Z,20.24
2022-08-08T10:22:29.919Z,20.93
2022-08-08T10:25:15.656Z,21.72
2022-08-08T10:27:44.609Z,23.70
2022-08-08T10:30:16.732Z,21.66
2022-08-08T10:33:01.080Z,20.40
2022-08-08T10:36:09.041Z,19.54
2022-08-08T10:38:20.570Z,20.50
2022-08-08T10:40:53.190Z,21.46
2022-08-08T10:43:22.978Z,21.26
2022-08-08T10:45:56.619Z,21.85
2022-08-08T10:48:38.913Z,22.41
2022-08-08T10:51:31.168Z,23.86
2022-08-08T10:54:02.107Z,24.05
2022-08-08T10:56:35.679Z,22.07
2022-08-08T10:59:12.316Z,19.56
2022-08-08T11:01:54.338Z,18.85
2022-08-08T11:04:29.428Z,17.25
2022-08-08T11:07:07.171Z,17.19
2022-08-08T11:09:35.257Z,17.29
2022-08-08T11:12:12.717Z,18.26
2022-08-08T11:14:59.795Z,18.17
2022-08-08T11:17:58.054Z,18.08
2022-08-08T11:20:25.027Z,18.59
2022-08-08T11:23:00.603Z,19.91
2022-08-08T11:25:43.654Z,20.78
2022-08-08T11:28:25.568Z,21.48
2022-08-08T11:30:57.927Z,22.57
2022-08-08T11:33:52.471Z,23.02
2022-08-08T11:36:17.559Z,22.89
2022-08-08T11:38:55.297Z,22.95
2022-08-08T11:41:24.723Z,23.14
2022-08-08T11:43:57.961Z,24.13
2022-08-08T11:46:28.103Z,25.38
2022-08-08T11:48:59.542Z,25.50
2022-08-08T11:51:38.818Z,26.76
2022-08-08T11:54:31.504Z,26.37
2022-08-08T11:57:35.029Z,27.70
2022-08-08T12:00:09.674Z,28.17
2022-08-08T12:02:47.646Z,28.51
2022-08-08T12:05:16.320Z,28.70
2022-08-08T12:07:54.180Z,29.73
2022-08-08T12:10:26.102Z,29.10
2022-08-08T12:13:03.373Z,28.85
2022-08-08T12:15:42.368Z,28.55
2022-08-08T12:18:20.967Z,27.91
2022-08-08T12:20:53.252Z,28.62
2022-08-08T12:23:43.711Z,29.10
2022-08-08T12:26:28.258Z,29.65
2022-08-08T12:29:21.303Z,30.26
2022-08-08T12:32:13.384Z,30.38
2022-08-08T12:35:01.227Z,29.58
2022-08-08T12:37:34.928Z,29.80
2022-08-08T12:40:23.579Z,29.67
2022-08-08T12:42:52.860Z,30.40
2022-08-08T12:45:58.382Z,30.32
2022-08-08T12:48:36.288Z,30.65
2022-08-08T12:51:10.761Z,30.93
2022-08-08T12:53:58.794Z,31.45
2022-08-08T12:56:34.963Z,33.18
2022-08-08T12:59:18.225Z,32.43
2022-08-08T13:01:58.537Z,31.73
2022-08-08T13:04:33.325Z,31.31
2022-08-08T13:07:07.006Z,31.91
2022-08-08T13:09:43.212Z,32.19
2022-08-08T13:12:35.165Z,32.80
2022-08-08T13:15:09.244Z,32.64
2022-08-08T13:18:08.449Z,32.13
2022-08-08T13:20:27.666Z,33.74
2022-08-08T13:23:30.669Z,32.80
2022-08-08T13:25:50.390Z,34.04
2022-08-08T13:28:32.244Z,34.66
2022-08-08T13:31:04.672Z,35.80
2022-08-08T13:33:41.869Z,36.34
2022-08-08T13:36:11.055Z,36.68
2022-08-08T13:38:39.680Z,35.99
2022-08-08T13:41:16.085Z,35.94
2022-08-08T13:43:49.605Z,35.85
2022-08-08T13:46:26.595Z,35.64
2022-08-08T13:49:12.211Z,35.38
2022-08-08T13:51:57.113Z,35.34
2022-08-08T13:54:29.572Z,35.03
2022-08-08T13:57:11.329Z,35.87
2022-08-08T13:59:44.300Z,35.44
2022-08-08T14:02:31.211Z,35.59
2022-08-08T14:05:09.173Z,35.85
2022-08-08T14:07:52.285Z,35.86
2022-08-08T14:10:33.156Z,36.26
2022-08-08T14:13:20.955Z,36.73
2022-08-08T14:16:07.874Z,37.19
2022-08-08T14:18:58.847Z,37.61
2022-08-08T14:21:49.089Z,37.30
2022-08-08T14:24:32.825Z,36.67
2022-08-08T14:27:01.988Z,36.32
2022-08-08T14:29:39.344Z,35.76
2022-08-08T14:32:14.161Z,34.56
2022-08-08T14:34:50.146Z,33.29
2022-08-08T14:37:19.755Z,33.10
2022-08-08T14:40:05.291Z,32.52
2022-08-08T14:42:35.979Z,32.38
2022-08-08T14:45:10.293Z,32.09
2022-08-08T14:47:46.794Z,32.53
2022-08-08T14:50:38.268Z,32.93
2022-08-08T14:53:13.486Z,34.27
2022-08-08T14:55:43.076Z,34.05
2022-08-08T14:58:16.926Z,34.02
2022-08-08T15:00:49.382Z,33.32
2022-08-08T15:03:18.403Z,33.69
2022-08-08T15:05:54.396Z,33.29
2022-08-08T15:08:34.778Z,33.09
2022-08-08T15:11:10.327Z,33.77
2022-08-08T15:14:00.814Z,33.28
2022-08-08T15:16:28.661Z,34.43
2022-08-08T15:18:56.586Z,34.54
2022-08-08T15:21:30.081Z,34.15
2022-08-08T15:23:58.549Z,33.80
2022-08-08T15:26:29.286Z,34.33
2022-08-08T15:28:57.596Z,34.08
2022-08-08T15:31:55.711Z,33.71
2022-08-08T15:34:18.390Z,34.09
2022-08-08T15:36:59.627Z,34.06
2022-08-08T15:39:37.491Z,35.01
2022-08-08T15:42:10.269Z,34.35
2022-08-08T15:44:42.190Z,35.06
2022-08-08T15:47:16.156Z,34.56
2022-08-08T15:49:48.940Z,35.17
2022-08-08T15:52:20.637Z,35.66
2022-08-08T15:54:51.845Z,35.91
2022-08-08T15:57:21.318Z,37.05
2022-08-08T16:00:25.648Z,37.65
2022-08-08T16:02:43.723Z,37.06
2022-08-08T16:05:13.814Z,37.34
2022-08-08T16:07:53.150Z,37.97
2022-08-08T16:13:03.266Z,37.43
2022-08-08T16:13:32.276Z,38.42
2022-08-08T16:16:16.523Z,38.61
2022-08-08T16:18:56.322Z,38.58
2022-08-08T16:21:27.833Z,38.82
2022-08-08T16:23:58.582Z,39.15
2022-08-08T16:26:34.516Z,39.43
2022-08-08T16:29:08.646Z,39.86
2022-08-08T16:31:42.054Z,40.37
2022-08-08T16:34:19.612Z,41.00
2022-08-08T16:36:50.379Z,40.83
2022-08-08T16:39:49.130Z,41.50
2022-08-08T16:42:18.096Z,41.61
2022-08-08T16:44:54.382Z,42.96
2022-08-08T16:47:40.206Z,42.73
2022-08-08T16:50:15.493Z,43.41
2022-08-08T16:55:03.838Z,43.40
2022-08-08T16:55:53.852Z,43.43
2022-08-08T16:58:26.396Z,43.74
2022-08-08T17:00:58.204Z,44.24
2022-08-08T17:04:00.858Z,44.93
2022-08-08T17:06:36.104Z,46.50
2022-08-08T17:09:02.863Z,47.36
2022-08-08T17:11:38.894Z,48.33
2022-08-08T17:14:18.865Z,48.93
2022-08-08T17:16:57.811Z,51.04
2022-08-08T17:19:28.986Z,51.07
2022-08-08T17:22:01.269Z,51.67
2022-08-08T17:24:30.638Z,51.96
2022-08-08T17:26:59.299Z,51.68
2022-08-08T17:29:33.395Z,50.63
2022-08-08T17:32:04.356Z,51.91
2022-08-08T17:34:48.042Z,51.95
2022-08-08T17:37:24.937Z,52.13
2022-08-08T17:40:10.443Z,54.50
2022-08-08T17:42:41.285Z,53.31
2022-08-08T17:45:23.508Z,53.65
2022-08-08T17:47:53.974Z,55.47
2022-08-08T17:50:23.752Z,55.95
2022-08-08T17:52:56.425Z,56.85
2022-08-08T17:56:07.047Z,55.94
2022-08-08T17:58:15.212Z,55.48
2022-08-08T18:00:42.867Z,55.01
2022-08-08T18:03:15.482Z,55.35
2022-08-08T18:05:49.799Z,55.44
2022-08-08T18:08:38.312Z,55.49
2022-08-08T18:11:16.291Z,55.42
2022-08-08T18:13:46.130Z,56.80
2022-08-08T18:16:16.968Z,55.12
2022-08-08T18:18:53.124Z,54.46
2022-08-08T18:21:59.702Z,54.57
2022-08-08T18:24:18.981Z,53.19
2022-08-08T18:26:53.781Z,52.93
2022-08-08T18:29:33.537Z,53.20
2022-08-08T18:32:07.800Z,53.13
2022-08-08T18:34:36.742Z,52.96
2022-08-08T18:37:07.958Z,53.03
2022-08-08T18:39:41.917Z,53.41
2022-08-08T18:42:15.940Z,53.71
2022-08-08T18:44:55.048Z,53.71
2022-08-08T18:47:27.991Z,54.08
2022-08-08T18:50:00.247Z,53.72
2022-08-08T18:52:29.943Z,53.12
2022-08-08T18:54:59.314Z,53.91
2022-08-08T18:57:31.972Z,53.78
2022-08-08T19:00:10.641Z,54.28
2022-08-08T19:02:48.578Z,54.38
2022-08-08T19:05:32.104Z,53.95
2022-08-08T19:08:29.704Z,53.80
2022-08-08T19:10:59.251Z,53.73
2022-08-08T19:13:38.488Z,53.77
2022-08-08T19:16:19.190Z,54.05
2022-08-08T19:18:54.798Z,53.54
2022-08-08T19:21:32.801Z,53.84
2022-08-08T19:24:05.246Z,54.07
2022-08-08T19:26:35.460Z,54.13
2022-08-08T19:29:06.977Z,54.08
2022-08-08T19:31:35.428Z,53.98
2022-08-08T19:34:30.156Z,53.46
2022-08-08T19:36:55.303Z,53.61
2022-08-08T19:39:23.657Z,53.86
2022-08-08T19:41:51.977Z,54.07
2022-08-08T19:44:26.723Z,54.51
2022-08-08T19:47:04.330Z,54.75
2022-08-08T19:49:37.754Z,55.12
2022-08-08T19:52:07.382Z,56.25
2022-08-08T19:54:38.236Z,58.09
2022-08-08T19:57:07.510Z,57.23
2022-08-08T19:59:35.737Z,57.24
2022-08-08T20:02:05.130Z,57.81
2022-08-08T20:04:33.797Z,58.99
2022-08-08T20:08:27.201Z,61.68
2022-08-08T20:09:55.878Z,62.60
2022-08-08T20:12:32.321Z,58.71
2022-08-08T20:15:14.692Z,57.34
2022-08-08T20:17:47.276Z,57.73
2022-08-08T20:20:19.007Z,57.60
2022-08-08T20:22:54.287Z,58.52
2022-08-08T20:25:24.623Z,59.02
2022-08-08T20:27:54.937Z,58.98
2022-08-08T20:30:53.288Z,60.94
2022-08-08T20:33:18.423Z,61.04
2022-08-08T20:35:58.654Z,61.84
2022-08-08T20:38:32.744Z,56.94
2022-08-08T20:41:05.804Z,54.99
2022-08-08T20:43:49.450Z,55.43
2022-08-08T20:46:20.934Z,56.03
2022-08-08T20:48:51.363Z,57.20
2022-08-08T20:51:20.976Z,57.89
2022-08-08T20:53:59.826Z,58.51
2022-08-08T20:56:35.379Z,59.29
2022-08-08T20:59:06.347Z,62.13
2022-08-08T21:02:06.574Z,65.26
2022-08-08T21:04:27.621Z,64.91
2022-08-08T21:06:56.425Z,64.47
2022-08-08T21:09:31.422Z,62.12
2022-08-08T21:12:03.403Z,60.03
2022-08-08T21:14:34.556Z,56.61
2022-08-08T21:17:06.114Z,56.86
2022-08-08T21:19:45.669Z,57.77
2022-08-08T21:22:16.006Z,59.38
2022-08-08T21:24:53.030Z,63.27
2022-08-08T21:28:05.325Z,64.26
2022-08-08T21:30:19.315Z,63.19
2022-08-08T21:32:52.313Z,60.44
2022-08-08T21:36:18.257Z,59.46
2022-08-08T21:38:17.232Z,58.32
2022-08-08T21:40:55.542Z,57.93
2022-08-08T21:43:34.341Z,62.44
2022-08-08T21:48:04.027Z,64.11
2022-08-08T21:48:53.947Z,63.13
2022-08-08T21:54:31.173Z,63.58
2022-08-08T21:54:31.738Z,62.07
2022-08-08T21:57:01.582Z,58.74
2022-08-08T22:00:03.229Z,56.65
2022-08-08T22:02:22.916Z,56.82
2022-08-08T22:04:52.963Z,57.57
2022-08-08T22:07:26.180Z,58.37
2022-08-08T22:10:18.355Z,58.76
2022-08-08T22:13:17.658Z,61.18
2022-08-08T22:15:58.741Z,62.87
2022-08-08T22:18:30.534Z,64.16
2022-08-08T22:21:01.575Z,63.65
2022-08-08T22:23:50.692Z,63.66
2022-08-08T22:26:29.542Z,64.40
2022-08-08T22:29:15.002Z,64.02
2022-08-08T22:32:01.477Z,63.52
2022-08-08T22:34:32.177Z,62.11
2022-08-08T22:37:01.130Z,61.50
2022-08-08T22:39:39.344Z,62.63
2022-08-08T22:42:14.310Z,61.94
2022-08-08T22:44:54.958Z,61.51
2022-08-08T22:47:22.702Z,58.88
2022-08-08T22:49:54.204Z,57.88
2022-08-08T22:52:33.673Z,58.86
2022-08-08T22:55:05.834Z,61.26
2022-08-08T22:57:43.998Z,62.88
2022-08-08T23:00:13.454Z,62.66
2022-08-08T23:02:41.559Z,62.51
2022-08-08T23:05:14.374Z,62.50
2022-08-08T23:07:49.323Z,62.55
2022-08-08T23:10:25.215Z,62.90
2022-08-08T23:12:55.094Z,61.93
2022-08-08T23:16:38.378Z,61.90
2022-08-08T23:18:12.468Z,61.18
2022-08-08T23:20:43.462Z,60.34
2022-08-08T23:23:12.484Z,60.65
2022-08-08T23:25:48.162Z,61.08
2022-08-08T23:28:18.164Z,61.43
2022-08-08T23:30:47.583Z,61.57
2022-08-08T23:33:21.102Z,60.37
2022-08-08T23:36:08.311Z,61.00
2022-08-08T23:38:43.969Z,60.62
2022-08-08T23:41:23.259Z,58.93
2022-08-08T23:43:56.400Z,58.98
2022-08-08T23:49:08.766Z,61.78
2022-08-08T23:49:14.889Z,61.94
2022-08-08T23:52:06.213Z,61.12
2022-08-08T23:54:42.874Z,60.25
2022-08-08T23:57:27.195Z,57.68
